Jolon, CA (93928)

4:54 PM PDT on September 01, 2015 (GMT -0700)
South of San Ardo | | Change Station
CLOSE
Current Station
Personal Weather Station
Location: San Ardo, CA
Elevation: 600 ft
Nearby Weather Stations

Elev 600 ft 35.97 °N, 120.90 °W | Updated 2 seconds ago

Clear
Clear
82.9 °F
Feels Like 82 °F
N
4.0
Wind Variable Wind from NNW
Gusts 7.4 mph

Today
High -- | Low -- °F
--% Chance of Precip.
Yesterday
High -- | Low -- °F
Precip. -- in
6:36 AM 7:32 PM
Waning Gibbous, 85% visible
Pressure 29.84 in
Visibility 10.0 miles
Clouds Clear
Heat Index 82 °F
Dew Point 56 °F
Humidity 39%
Rainfall 0.00 in
Snow Depth Not available.
UV 2.0 out of 12
Pollen 8.90 out of 12
Air Quality Not available.
Flu Activity Not available.
METAR KPRB 012253Z AUTO 20015KT 10SM CLR 27/12 A2986 RMK AO2 SLP105 T02670122 TSNO
Pressure 29.84 in
Visibility 10.0 miles
Clouds Clear
Heat Index 82 °F
Dew Point 56 °F
Humidity 39%
Rainfall 0.00 in
Snow Depth Not available.
UV 2.0 out of 12
Pollen 8.90 out of 12
Air Quality Not available.
Flu Activity Not available.
METAR KPRB 012253Z AUTO 20015KT 10SM CLR 27/12 A2986 RMK AO2 SLP105 T02670122 TSNO

10-Day Weather Forecast

×

Almanac

Astronomy

Sep. 01, 2015 Rise Set
Actual Time
Civil Twilight
Nautical Twilight
Astronomical Twilight
Moon
Length of Visible Light
Length of Day
Tomorrow will be .
, % of the Moon is Illuminated

Today's Extremes

State Highs State Lows

Community

WunderPhotos

Upload Photos

1,851,643 photos uploaded!

WunderBlogs® & News

Nearby

Air Quality

  Air Quality AQ Index Pollutant
Not available.

Snow Depth

Station Depth Elevation

Earthquake Activity

City Distance Mag. Time & Date
Minimum magnitude displayed is 2.5.

Coastal Water Temperatures

Place Temperature

Stations

Nearby Weather Stations

Station Location Temp. Windchill Dew Point Humidity Wind Precip. Elev Updated Type